Time;durP1;ratioP1;P1;durP2;ratioP2;P2;SDS_P1;SDS_P2;PMS_P1;PMS_P2;Temp;Humidity;BMP_temperature;BMP_pressure;BME280_temperature;BME280_humidity;BME280_pressure;Samples;Min_cycle;Max_cycle;Signal;HPM_P1;HPM_P2
2022/03/07 00:05:06;;;;;;;;;;;;;;;;;;;;;
2022/03/07 00:15:20;;;;;;;;;;;;;;;;;;;;;
2022/03/07 02:48:58;;;;;;;22.00;13.20;;;0.50;99.90;;;;;;5025695;28;20461;-86
2022/03/07 02:52:07;;;;;;;21.90;13.20;;;0.60;99.90;;;;;;5008007;28;20032;-87
2022/03/07 02:54:38;;;;;;;18.65;11.57;;;0.50;99.90;;;;;;5034069;28;20018;-87
2022/03/07 03:00:54;;;;;;;;;;;;;;;;;;;;;
2022/03/07 03:03:52;;;;;;;19.35;11.68;;;0.50;99.90;;;;;;5037205;28;20028;-86
2022/03/07 03:06:59;;;;;;;16.75;10.35;;;0.60;99.90;;;;;;5019464;28;20025;-85
2022/03/07 03:09:45;;;;;;;16.13;10.77;;;0.50;99.90;;;;;;5016724;28;20037;-88
2022/03/07 03:12:12;;;;;;;16.27;11.63;;;0.60;99.90;;;;;;5023839;28;20033;-86
2022/03/07 03:14:49;;;;;;;17.55;10.77;;;0.50;99.90;;;;;;5025386;28;20037;-89
2022/03/07 03:17:18;;;;;;;18.65;11.23;;;0.60;99.90;;;;;;5025073;28;20055;-89
2022/03/07 03:19:47;;;;;;;20.38;11.05;;;0.60;99.90;;;;;;5019384;28;20060;-88
2022/03/07 03:22:20;;;;;;;17.90;11.05;;;0.60;99.90;;;;;;5018635;28;20032;-86
2022/03/07 03:24:46;;;;;;;19.23;11.10;;;0.60;99.90;;;;;;5018971;28;20034;-86
2022/03/07 03:27:12;;;;;;;17.55;10.60;;;0.50;99.90;;;;;;5018845;28;20037;-86
2022/03/07 03:29:50;;;;;;;16.85;10.10;;;0.50;99.90;;;;;;5019053;28;20030;-87
2022/03/07 03:32:32;;;;;;;;;;;;;;;;;;;;;
2022/03/07 03:35:16;;;;;;;;;;;;;;;;;;;;;
2022/03/07 03:37:48;;;;;;;15.95;10.20;;;0.50;99.90;;;;;;5036095;28;20124;-88
2022/03/07 03:40:30;;;;;;;;;;;;;;;;;;;;;
2022/03/07 03:46:48;;;;;;;;;;;;;;;;;;;;;
2022/03/07 03:49:50;;;;;;;22.40;11.18;;;0.60;99.90;;;;;;5033548;28;20110;-86
2022/03/07 03:52:16;;;;;;;16.70;10.10;;;0.60;99.90;;;;;;5013742;28;20107;-85
2022/03/07 03:54:57;;;;;;;19.05;11.23;;;0.60;99.90;;;;;;5018327;28;20448;-87
2022/03/07 03:57:34;;;;;;;15.57;9.73;;;0.70;99.90;;;;;;5018522;28;20025;-87
2022/03/07 04:00:00;;;;;;;19.10;10.13;;;0.70;99.90;;;;;;5018284;28;20496;-86
2022/03/07 04:02:44;;;;;;;16.48;8.98;;;0.70;99.90;;;;;;5018657;28;20072;-87
2022/03/07 04:05:46;;;;;;;14.70;10.20;;;0.70;99.90;;;;;;5018364;28;20034;-84
2022/03/07 04:14:37;;;;;;;16.88;10.18;;;0.60;99.90;;;;;;5025739;28;20489;-86
2022/03/07 04:17:12;;;;;;;14.77;9.50;;;0.60;99.90;;;;;;5018179;28;20112;-86
2022/03/07 04:19:41;;;;;;;19.33;11.65;;;0.60;99.90;;;;;;5017823;28;20037;-86
2022/03/07 04:22:07;;;;;;;15.80;10.10;;;0.70;99.90;;;;;;5017813;28;20029;-85
2022/03/07 04:24:36;;;;;;;15.40;10.15;;;0.70;99.90;;;;;;5018638;28;20119;-86
2022/03/07 04:27:03;;;;;;;17.13;10.35;;;0.70;99.90;;;;;;5018602;28;20426;-86
2022/03/07 04:29:31;;;;;;;15.02;10.13;;;0.70;99.90;;;;;;5017937;28;20052;-85
2022/03/07 04:32:02;;;;;;;17.33;10.35;;;0.70;99.90;;;;;;5018159;28;20175;-87
2022/03/07 04:35:06;;;;;;;19.00;11.20;;;0.70;99.90;;;;;;5017924;28;20026;-86
2022/03/07 04:38:17;;;;;;;15.73;10.50;;;0.70;99.90;;;;;;5016755;28;20393;-86
2022/03/07 04:41:13;;;;;;;;;;;;;;;;;;;;;
2022/03/07 04:56:22;;;;;;;17.88;10.63;;;0.70;99.90;;;;;;4953205;29;20047;-85
2022/03/07 04:59:12;;;;;;;17.08;10.45;;;0.70;99.90;;;;;;5017559;28;20108;-86
2022/03/07 05:01:42;;;;;;;15.95;10.20;;;0.70;99.90;;;;;;5017434;28;20037;-85
2022/03/07 05:04:18;;;;;;;16.08;10.70;;;0.80;99.90;;;;;;5017347;28;20037;-87
2022/03/07 05:06:47;;;;;;;17.25;10.45;;;0.80;99.90;;;;;;5017632;28;20053;-85
2022/03/07 05:09:23;;;;;;;16.95;10.70;;;0.80;99.90;;;;;;5018458;28;20025;-86
2022/03/07 05:11:50;;;;;;;;;;;0.70;99.90;;;;;;5020773;28;20025;-87
2022/03/07 05:14:17;;;;;;;16.50;10.15;;;0.70;99.90;;;;;;5020314;28;19920;-87
2022/03/07 05:16:46;;;;;;;13.25;9.30;;;0.70;99.90;;;;;;5017578;28;20018;-86
2022/03/07 05:19:12;;;;;;;15.95;9.57;;;0.70;99.90;;;;;;5017916;28;20111;-85
2022/03/07 05:21:37;;;;;;;14.55;9.65;;;0.80;99.90;;;;;;5016690;28;20462;-80
2022/03/07 05:24:03;;;;;;;14.82;9.40;;;0.70;99.90;;;;;;5035045;28;20214;-85
2022/03/07 05:26:37;;;;;;;17.00;9.52;;;0.70;99.90;;;;;;5017805;28;20025;-86
2022/03/07 05:29:14;;;;;;;16.30;10.30;;;0.70;99.90;;;;;;5017479;28;20087;-88
2022/03/07 05:35:09;;;;;;;16.00;8.95;;;0.70;99.90;;;;;;5023905;28;20140;-86
2022/03/07 05:37:36;;;;;;;18.23;10.68;;;0.70;99.90;;;;;;5034161;28;20129;-87
2022/03/07 05:40:04;;;;;;;14.27;8.75;;;0.70;99.90;;;;;;5017247;28;20385;-86
2022/03/07 05:42:54;;;;;;;17.80;9.55;;;0.70;99.90;;;;;;5019823;28;20018;-85
2022/03/07 05:45:20;;;;;;;15.13;9.50;;;0.80;99.90;;;;;;5017674;28;20450;-84
2022/03/07 05:48:08;;;;;;;15.27;9.73;;;0.80;99.90;;;;;;5029625;28;20045;-84
2022/03/07 05:53:34;;;;;;;15.88;8.35;;;0.90;99.90;;;;;;5038410;28;20033;-84
2022/03/07 05:56:01;;;;;;;13.18;8.80;;;0.90;99.90;;;;;;5020835;28;20022;-83
2022/03/07 05:58:28;;;;;;;16.77;9.13;;;0.90;99.90;;;;;;5021263;28;20032;-84
2022/03/07 06:00:54;;;;;;;15.60;8.57;;;1.00;99.90;;;;;;5021267;28;20104;-86
2022/03/07 06:03:20;;;;;;;18.38;10.07;;;0.90;99.90;;;;;;5021679;28;20516;-86
2022/03/07 06:05:46;;;;;;;13.52;8.75;;;0.90;99.90;;;;;;5021363;28;20485;-84
2022/03/07 06:08:12;;;;;;;13.55;8.73;;;0.90;99.90;;;;;;5021068;28;20092;-84
2022/03/07 06:10:43;;;;;;;17.30;8.13;;;1.00;99.90;;;;;;5020662;28;20041;-85
2022/03/07 06:17:03;;;;;;;;;;;;;;;;;;;;;
2022/03/07 06:20:23;;;;;;;;;;;;;;;;;;;;;
2022/03/07 06:30:24;;;;;;;13.98;7.78;;;1.00;99.90;;;;;;4902388;29;20444;-88
2022/03/07 06:33:01;;;;;;;14.18;7.03;;;1.00;99.90;;;;;;5036777;28;20045;-87
2022/03/07 06:35:51;;;;;;;11.30;7.10;;;1.00;99.90;;;;;;5020217;28;20033;-85
2022/03/07 06:38:40;;;;;;;10.50;6.88;;;1.00;99.90;;;;;;5021453;28;20132;-86
2022/03/07 06:41:13;;;;;;;12.98;6.85;;;1.10;99.90;;;;;;5023006;28;20030;-87
2022/03/07 06:43:40;;;;;;;12.93;7.10;;;1.10;99.90;;;;;;5027435;28;20029;-85
2022/03/07 06:46:23;;;;;;;9.45;7.00;;;1.10;99.90;;;;;;5020965;28;20034;-85
2022/03/07 06:49:09;;;;;;;11.15;6.80;;;1.30;99.90;;;;;;5020140;28;20033;-87
2022/03/07 06:52:00;;;;;;;9.40;5.75;;;1.30;99.90;;;;;;5019729;28;20500;-86
2022/03/07 06:54:36;;;;;;;9.82;6.55;;;1.30;99.90;;;;;;5020996;28;20033;-86
2022/03/07 06:57:10;;;;;;;;;;;1.40;99.90;;;;;;5020642;28;20055;-84
2022/03/07 06:59:45;;;;;;;10.65;6.88;;;1.40;99.90;;;;;;5021576;28;19915;-84
2022/03/07 07:02:12;;;;;;;8.20;6.22;;;1.50;99.90;;;;;;5021439;28;20099;-84
2022/03/07 07:04:51;;;;;;;10.85;6.97;;;1.50;99.90;;;;;;5021561;28;20048;-85
2022/03/07 07:14:01;;;;;;;7.35;5.70;;;1.80;99.90;;;;;;5008118;28;20037;-87
2022/03/07 07:16:28;;;;;;;11.48;6.82;;;1.90;99.90;;;;;;5021601;28;20100;-85
2022/03/07 07:19:03;;;;;;;10.77;6.05;;;1.90;99.90;;;;;;5021400;28;20121;-87
2022/03/07 07:21:29;;;;;;;9.90;6.30;;;2.00;99.90;;;;;;5022272;28;20096;-85
2022/03/07 07:23:56;;;;;;;11.80;6.43;;;2.00;99.90;;;;;;5020429;28;20017;-85
2022/03/07 07:26:22;;;;;;;12.25;7.25;;;2.10;99.90;;;;;;5021326;28;20037;-85
2022/03/07 07:28:47;;;;;;;11.55;5.80;;;2.30;99.90;;;;;;5004053;28;20097;-84
2022/03/07 07:31:13;;;;;;;12.60;6.13;;;2.40;99.90;;;;;;5019916;28;20025;-85
2022/03/07 07:33:46;;;;;;;13.18;7.32;;;2.50;99.90;;;;;;5020733;28;20040;-86
2022/03/07 07:36:12;;;;;;;16.15;8.02;;;2.90;99.90;;;;;;5021460;28;20036;-86
2022/03/07 07:38:39;;;;;;;13.15;7.43;;;2.90;99.90;;;;;;5020587;28;20033;-85
2022/03/07 07:41:05;;;;;;;11.13;6.43;;;2.90;99.90;;;;;;5023384;28;20032;-86
2022/03/07 07:43:31;;;;;;;15.48;6.50;;;3.00;99.90;;;;;;5022318;28;20093;-87
2022/03/07 07:45:58;;;;;;;10.48;6.57;;;3.20;99.90;;;;;;5023322;28;20040;-88
2022/03/07 07:48:24;;;;;;;11.82;6.95;;;3.40;99.90;;;;;;5025952;28;20026;-88
2022/03/07 07:50:53;;;;;;;12.32;6.30;;;3.80;99.90;;;;;;5031052;28;20022;-90
2022/03/07 07:53:21;;;;;;;16.17;7.53;;;4.00;99.90;;;;;;5033084;28;20033;-86
2022/03/07 07:55:49;;;;;;;12.38;6.55;;;4.40;99.90;;;;;;5039625;28;20071;-87
2022/03/07 07:58:20;;;;;;;11.88;6.32;;;4.50;99.90;;;;;;5039641;28;20017;-85
2022/03/07 08:00:48;;;;;;;9.40;5.85;;;4.70;99.90;;;;;;5039034;28;20028;-86
2022/03/07 08:03:22;;;;;;;9.85;6.32;;;5.10;94.60;;;;;;5025544;28;20095;-85
2022/03/07 08:05:48;;;;;;;8.82;6.28;;;5.30;92.20;;;;;;5022797;28;20108;-86
2022/03/07 08:08:32;;;;;;;16.77;8.35;;;5.50;91.00;;;;;;5020968;28;20041;-87
2022/03/07 08:11:07;;;;;;;7.78;5.85;;;5.70;88.70;;;;;;5021957;28;20026;-86
2022/03/07 08:13:36;;;;;;;;;;;5.70;84.40;;;;;;5021912;28;20123;-88
2022/03/07 08:16:09;;;;;;;9.18;5.85;;;5.90;84.80;;;;;;5021867;28;19905;-86
2022/03/07 08:18:41;;;;;;;11.80;6.05;;;6.00;81.90;;;;;;5021298;28;20033;-85
2022/03/07 08:24:08;;;;;;;9.93;5.47;;;5.90;80.90;;;;;;5024242;28;20033;-87
2022/03/07 08:26:41;;;;;;;7.43;5.18;;;5.90;79.80;;;;;;5021696;28;20056;-86
2022/03/07 08:29:24;;;;;;;5.95;3.95;;;5.90;77.90;;;;;;5021566;28;20022;-86
2022/03/07 08:32:28;;;;;;;;;;;;;;;;;;;;;
2022/03/07 08:35:05;;;;;;;7.53;4.13;;;6.20;77.10;;;;;;5037543;28;20105;-85
2022/03/07 08:37:32;;;;;;;7.75;4.43;;;6.20;76.00;;;;;;5020188;28;20018;-86
2022/03/07 08:40:00;;;;;;;6.10;4.35;;;6.10;74.60;;;;;;5018264;28;20025;-85
2022/03/07 08:42:28;;;;;;;6.88;3.58;;;6.20;74.90;;;;;;5019610;28;20056;-86
2022/03/07 08:45:30;;;;;;;5.00;3.30;;;6.00;73.80;;;;;;5018903;28;20037;-87
2022/03/07 08:47:56;;;;;;;7.15;3.10;;;6.20;73.80;;;;;;5020365;28;20385;-86
2022/03/07 08:50:22;;;;;;;4.53;3.22;;;6.40;72.50;;;;;;5021747;28;20120;-88
2022/03/07 08:53:04;;;;;;;7.65;3.55;;;6.00;72.90;;;;;;5020990;28;20057;-87
2022/03/07 08:56:14;;;;;;;;;;;;;;;;;;;;;
2022/03/07 08:58:49;;;;;;;7.30;3.20;;;6.20;74.20;;;;;;5039960;28;20133;-86
2022/03/07 09:01:36;;;;;;;4.05;2.85;;;6.40;72.30;;;;;;5019765;28;20025;-88
2022/03/07 09:05:04;;;;;;;5.40;2.40;;;6.80;71.70;;;;;;5025668;28;20079;-86
2022/03/07 09:10:24;;;;;;;3.75;2.40;;;6.80;70.40;;;;;;5031675;28;20025;-85
2022/03/07 09:12:54;;;;;;;4.07;2.42;;;7.00;68.60;;;;;;5017947;28;20101;-85
2022/03/07 09:15:27;;;;;;;5.53;2.53;;;7.20;67.90;;;;;;5016253;28;20026;-85
2022/03/07 09:17:56;;;;;;;5.18;2.38;;;7.10;68.70;;;;;;5017750;28;20128;-86
2022/03/07 09:20:29;;;;;;;4.28;2.70;;;6.90;67.70;;;;;;5017500;28;20057;-86
2022/03/07 09:22:54;;;;;;;5.93;3.22;;;6.90;69.80;;;;;;5019994;28;20021;-88
2022/03/07 09:25:40;;;;;;;3.97;2.50;;;6.90;69.80;;;;;;5021395;28;20438;-86
2022/03/07 09:28:38;;;;;;;4.95;2.83;;;7.10;69.10;;;;;;5021414;28;20510;-86
2022/03/07 09:31:55;;;;;;;5.25;2.60;;;7.10;68.70;;;;;;5020250;28;20482;-87
2022/03/07 09:38:58;;;;;;;4.05;2.83;;;7.30;69.50;;;;;;5038767;28;20496;-88
2022/03/07 09:48:14;;;;;;;;;;;;;;;;;;;;;
2022/03/07 09:51:32;;;;;;;6.32;2.60;;;7.80;67.70;;;;;;4959940;28;20777;-87
2022/03/07 10:29:29;;;;;;;4.70;2.45;;;8.00;65.90;;;;;;5063522;23;20058;-78
2022/03/07 10:31:55;;;;;;;5.35;2.90;;;8.40;63.70;;;;;;5009698;28;20052;-82
2022/03/07 10:34:21;;;;;;;3.08;2.70;;;8.60;64.10;;;;;;5007048;28;20025;-79
2022/03/07 10:36:47;;;;;;;5.30;3.00;;;8.50;62.50;;;;;;5007321;28;20030;-80
2022/03/07 10:39:21;;;;;;;7.03;2.97;;;8.60;63.80;;;;;;5024182;28;20052;-81
2022/03/07 10:41:48;;;;;;;4.90;2.95;;;8.40;63.70;;;;;;5057378;22;20485;-76
2022/03/07 10:44:31;;;;;;;6.97;3.15;;;8.50;62.60;;;;;;5043101;28;20031;-76
2022/03/07 10:47:10;;;;;;;3.85;2.60;;;8.50;63.60;;;;;;5056884;28;20036;-76
2022/03/07 10:49:50;;;;;;;7.35;3.25;;;8.70;62.30;;;;;;5052181;28;20024;-77
2022/03/07 10:52:16;;;;;;;5.43;2.88;;;8.20;62.30;;;;;;5017006;28;20095;-76
2022/03/07 10:54:42;;;;;;;4.75;2.90;;;7.90;64.90;;;;;;5015733;28;20018;-76
2022/03/07 10:57:09;;;;;;;3.85;2.90;;;8.30;64.20;;;;;;5016315;28;20034;-77
2022/03/07 10:59:36;;;;;;;5.53;3.15;;;8.30;63.50;;;;;;4999123;28;20029;-77
2022/03/07 11:02:04;;;;;;;5.60;2.90;;;8.10;64.30;;;;;;5022039;28;20664;-76
2022/03/07 11:04:30;;;;;;;8.88;3.63;;;8.20;63.50;;;;;;5017657;28;20030;-76
2022/03/07 11:06:56;;;;;;;5.47;3.25;;;8.50;64.20;;;;;;5013657;28;20121;-76
2022/03/07 11:09:22;;;;;;;5.53;2.70;;;8.70;63.90;;;;;;5035021;28;20108;-76
2022/03/07 11:11:50;;;;;;;5.82;3.30;;;9.00;62.60;;;;;;5035033;28;20096;-77
2022/03/07 11:14:16;;;;;;;5.10;3.17;;;9.30;62.40;;;;;;5017226;28;20032;-78
2022/03/07 11:16:43;;;;;;;8.45;3.47;;;9.50;61.50;;;;;;5017180;28;20017;-76
2022/03/07 11:19:10;;;;;;;4.32;2.90;;;9.50;60.30;;;;;;5034348;28;20041;-75
2022/03/07 11:21:39;;;;;;;6.35;3.50;;;9.10;60.70;;;;;;5033501;28;20095;-73
2022/03/07 11:24:05;;;;;;;7.45;3.67;;;9.30;61.50;;;;;;5033996;28;20130;-72
2022/03/07 11:26:31;;;;;;;5.07;3.22;;;9.10;62.40;;;;;;5020233;28;20480;-73
2022/03/07 11:28:57;;;;;;;4.63;3.25;;;8.90;62.20;;;;;;5040285;28;20033;-73
2022/03/07 11:31:28;;;;;;;6.22;3.10;;;8.80;64.00;;;;;;5035833;28;20516;-74
2022/03/07 11:33:55;;;;;;;5.93;3.25;;;9.20;62.70;;;;;;5016409;28;20030;-77
2022/03/07 11:36:22;;;;;;;5.90;2.97;;;9.20;61.10;;;;;;5034763;28;20029;-75
2022/03/07 11:39:02;;;;;;;5.32;3.10;;;9.20;61.50;;;;;;5035053;28;20105;-76
2022/03/07 11:41:31;;;;;;;4.95;2.90;;;9.20;60.90;;;;;;5017233;28;20123;-76
2022/03/07 11:44:15;;;;;;;5.95;3.45;;;9.30;61.40;;;;;;5007927;28;20087;-76
2022/03/07 11:46:44;;;;;;;4.95;2.85;;;9.20;61.10;;;;;;5016186;28;20025;-76
2022/03/07 11:49:23;;;;;;;9.82;3.25;;;9.40;60.40;;;;;;5017948;28;20030;-77
2022/03/07 11:52:00;;;;;;;4.15;3.00;;;9.10;60.60;;;;;;5014882;28;20026;-76
2022/03/07 11:54:25;;;;;;;5.55;3.10;;;9.00;61.50;;;;;;4996375;28;20121;-76
2022/03/07 11:56:51;;;;;;;6.22;2.78;;;9.00;61.10;;;;;;5013849;28;20600;-76
2022/03/07 11:59:27;;;;;;;7.10;2.90;;;9.20;60.80;;;;;;5014010;28;20037;-76
2022/03/07 12:01:53;;;;;;;4.70;2.47;;;9.20;60.60;;;;;;4996570;28;20026;-75
2022/03/07 12:04:19;;;;;;;4.97;3.10;;;9.20;61.30;;;;;;5014083;28;20026;-76
2022/03/07 12:06:45;;;;;;;6.75;3.40;;;9.60;61.40;;;;;;5014241;28;20026;-77
2022/03/07 12:09:10;;;;;;;8.23;3.10;;;9.40;60.40;;;;;;4997188;28;20474;-76
2022/03/07 12:11:38;;;;;;;6.70;2.97;;;9.40;60.40;;;;;;5031209;28;20025;-76
2022/03/07 12:14:07;;;;;;;6.80;3.15;;;9.30;61.60;;;;;;5033455;28;20423;-76
2022/03/07 12:16:38;;;;;;;5.22;2.85;;;9.30;60.50;;;;;;5033944;28;20029;-76
2022/03/07 12:19:08;;;;;;;5.55;3.47;;;9.30;60.70;;;;;;5033904;28;20025;-77
2022/03/07 12:21:36;;;;;;;6.35;2.92;;;9.30;61.00;;;;;;5033485;28;20492;-76
2022/03/07 12:24:01;;;;;;;9.32;3.60;;;9.30;60.50;;;;;;5033289;28;20034;-76
2022/03/07 12:26:27;;;;;;;3.78;2.85;;;9.50;61.70;;;;;;5016025;28;20025;-77
2022/03/07 12:28:53;;;;;;;6.15;3.78;;;9.60;61.50;;;;;;5033007;28;20021;-76
2022/03/07 12:31:18;;;;;;;6.85;3.50;;;9.50;61.50;;;;;;5032629;28;20468;-77
2022/03/07 12:33:45;;;;;;;4.90;3.05;;;9.60;60.00;;;;;;5015583;28;20033;-77
2022/03/07 12:36:14;;;;;;;4.03;3.10;;;9.70;58.80;;;;;;5033191;28;20064;-77
2022/03/07 12:38:52;;;;;;;4.97;3.50;;;9.80;59.50;;;;;;5033450;28;20033;-77
2022/03/07 12:41:32;;;;;;;7.88;3.55;;;9.80;60.40;;;;;;5032306;28;20040;-77
2022/03/07 12:43:58;;;;;;;5.93;3.55;;;9.90;59.60;;;;;;5006023;28;20069;-76
2022/03/07 12:46:25;;;;;;;6.25;3.80;;;9.70;60.30;;;;;;5013586;28;20058;-77
2022/03/07 12:48:53;;;;;;;5.47;3.10;;;9.80;59.80;;;;;;5013267;28;20053;-76
2022/03/07 12:51:21;;;;;;;11.65;3.60;;;9.60;59.60;;;;;;5013524;28;20021;-75
2022/03/07 12:53:59;;;;;;;6.47;3.75;;;9.50;60.30;;;;;;5012684;28;20176;-76
2022/03/07 12:56:33;;;;;;;8.85;4.20;;;9.30;60.90;;;;;;4994425;28;20489;-77
2022/03/07 12:58:58;;;;;;;4.95;3.40;;;9.50;61.60;;;;;;5012871;28;20022;-76
2022/03/07 13:01:26;;;;;;;5.63;3.40;;;9.60;61.60;;;;;;4995040;28;20116;-76
2022/03/07 13:03:53;;;;;;;5.70;3.30;;;9.80;61.10;;;;;;5013018;28;20025;-77
2022/03/07 13:06:23;;;;;;;5.65;2.90;;;10.10;60.10;;;;;;5013198;28;20021;-76
2022/03/07 13:08:54;;;;;;;4.85;3.25;;;10.00;59.80;;;;;;4995778;28;20036;-76
2022/03/07 13:11:38;;;;;;;4.47;3.20;;;9.60;59.60;;;;;;5013096;28;20037;-76
2022/03/07 13:14:05;;;;;;;7.47;3.15;;;9.50;61.30;;;;;;5013207;28;20026;-78
2022/03/07 13:16:35;;;;;;;5.65;3.30;;;9.60;60.20;;;;;;5013861;28;20046;-76
2022/03/07 13:19:08;;;;;;;6.40;3.22;;;9.50;60.30;;;;;;5014045;28;20034;-77
2022/03/07 13:21:53;;;;;;;6.07;3.72;;;9.60;60.30;;;;;;5013482;28;20014;-76
2022/03/07 13:24:25;;;;;;;6.50;3.28;;;9.60;60.30;;;;;;5013836;28;20481;-78
2022/03/07 13:27:07;;;;;;;5.10;3.10;;;9.60;60.30;;;;;;4996085;28;20034;-77
2022/03/07 13:29:35;;;;;;;5.82;3.05;;;9.80;60.10;;;;;;4996310;28;20493;-77
2022/03/07 13:32:05;;;;;;;5.00;3.28;;;9.50;59.30;;;;;;5013374;28;20462;-77
2022/03/07 13:34:49;;;;;;;7.00;3.25;;;9.40;60.70;;;;;;5013476;28;20034;-78
2022/03/07 13:37:17;;;;;;;7.22;3.35;;;9.40;59.20;;;;;;5014187;28;20033;-79
2022/03/07 13:39:43;;;;;;;4.68;2.75;;;9.20;60.50;;;;;;5013567;28;20030;-77
2022/03/07 13:42:15;;;;;;;4.28;2.78;;;9.10;60.50;;;;;;4996136;28;20088;-77
2022/03/07 13:44:57;;;;;;;5.28;2.47;;;9.00;59.90;;;;;;5028574;28;20026;-77
2022/03/07 13:47:28;;;;;;;4.13;2.80;;;8.90;59.60;;;;;;5015560;28;20028;-77
2022/03/07 13:49:56;;;;;;;4.43;2.80;;;9.00;60.90;;;;;;5033878;28;20060;-76
2022/03/07 13:52:27;;;;;;;6.07;3.35;;;9.20;59.30;;;;;;5033075;28;20032;-78
2022/03/07 13:54:54;;;;;;;6.15;3.20;;;9.20;59.20;;;;;;5033679;28;20018;-76
2022/03/07 13:57:20;;;;;;;5.68;2.90;;;9.20;58.90;;;;;;5033502;28;20108;-76
2022/03/07 14:00:08;;;;;;;4.55;3.25;;;9.20;59.20;;;;;;5033681;28;20060;-76
2022/03/07 14:02:37;;;;;;;5.15;3.33;;;9.10;59.60;;;;;;5033229;28;20471;-78
2022/03/07 14:05:03;;;;;;;5.13;2.70;;;9.00;59.30;;;;;;5032928;28;20029;-76
2022/03/07 14:07:31;;;;;;;5.90;3.33;;;9.10;60.00;;;;;;5035812;28;20104;-76
2022/03/07 14:10:09;;;;;;;4.20;3.10;;;9.10;59.60;;;;;;5035713;28;20433;-76
2022/03/07 14:12:36;;;;;;;6.43;2.78;;;9.20;59.60;;;;;;5035960;28;20524;-77
2022/03/07 14:15:06;;;;;;;3.65;2.78;;;9.20;59.70;;;;;;5036279;28;20025;-75
2022/03/07 14:17:33;;;;;;;3.88;2.88;;;9.20;60.40;;;;;;5037002;28;20089;-76
2022/03/07 14:19:59;;;;;;;4.78;2.53;;;9.20;59.40;;;;;;5036152;28;20044;-76
2022/03/07 14:22:25;;;;;;;3.72;2.75;;;9.20;59.50;;;;;;5037067;28;20426;-75
2022/03/07 14:24:53;;;;;;;3.72;2.85;;;9.20;60.00;;;;;;5036994;28;20057;-77
2022/03/07 14:27:23;;;;;;;4.25;2.90;;;9.00;58.90;;;;;;5018489;28;20036;-77
2022/03/07 14:29:48;;;;;;;4.20;2.85;;;9.00;59.70;;;;;;5017455;28;20029;-78
2022/03/07 14:32:14;;;;;;;4.25;2.97;;;9.00;59.70;;;;;;5036004;28;20037;-76
2022/03/07 14:34:40;;;;;;;3.55;2.97;;;9.00;59.20;;;;;;5036705;28;20104;-77
2022/03/07 14:37:06;;;;;;;7.38;3.17;;;8.90;59.80;;;;;;5036714;28;20065;-77
2022/03/07 14:39:32;;;;;;;4.53;3.13;;;9.00;60.50;;;;;;5016988;28;20506;-75
2022/03/07 14:41:59;;;;;;;4.30;3.40;;;9.10;60.00;;;;;;5016958;28;20037;-76
2022/03/07 14:44:25;;;;;;;5.22;3.08;;;9.10;59.00;;;;;;5022589;28;20022;-76
2022/03/07 14:46:51;;;;;;;5.18;3.03;;;9.00;58.90;;;;;;5015065;28;20030;-78
2022/03/07 14:49:17;;;;;;;4.32;2.90;;;8.90;59.90;;;;;;5017414;28;20496;-76
2022/03/07 14:51:42;;;;;;;4.28;3.13;;;8.90;59.70;;;;;;5026050;28;20057;-76
2022/03/07 14:54:08;;;;;;;3.70;3.25;;;8.80;59.80;;;;;;5023745;28;20033;-76
2022/03/07 14:56:34;;;;;;;7.40;3.42;;;8.70;60.10;;;;;;4997203;28;20125;-77
2022/03/07 14:58:59;;;;;;;7.78;3.95;;;8.70;60.10;;;;;;4997253;28;20108;-76
2022/03/07 15:01:25;;;;;;;7.10;3.92;;;8.70;60.40;;;;;;5015209;28;20026;-76
2022/03/07 15:03:52;;;;;;;5.70;3.22;;;8.70;60.80;;;;;;5015144;28;20034;-77
2022/03/07 15:06:18;;;;;;;4.07;3.30;;;8.60;60.90;;;;;;4997281;28;20036;-76
2022/03/07 15:08:43;;;;;;;9.88;3.88;;;8.40;61.50;;;;;;4997699;28;20061;-77
2022/03/07 15:11:09;;;;;;;8.05;3.55;;;8.40;62.20;;;;;;5014246;28;20077;-77
2022/03/07 15:13:34;;;;;;;7.93;4.05;;;8.50;62.00;;;;;;5014055;28;20101;-76
2022/03/07 15:16:00;;;;;;;5.85;3.50;;;8.40;62.60;;;;;;5013625;28;20496;-75
2022/03/07 15:18:26;;;;;;;6.35;4.03;;;8.40;61.40;;;;;;5012831;28;20022;-76
2022/03/07 15:20:51;;;;;;;4.28;3.10;;;8.30;62.40;;;;;;5014214;28;20145;-76
2022/03/07 15:23:19;;;;;;;4.30;3.53;;;8.20;63.20;;;;;;5014205;28;20430;-76
2022/03/07 15:25:46;;;;;;;5.57;3.30;;;8.10;62.60;;;;;;5013850;28;20037;-77
2022/03/07 15:28:13;;;;;;;5.60;3.67;;;8.00;63.20;;;;;;5013520;28;20045;-79
2022/03/07 15:30:39;;;;;;;6.00;4.03;;;8.00;63.10;;;;;;5013470;28;20030;-77
2022/03/07 15:33:04;;;;;;;8.05;3.92;;;7.90;63.20;;;;;;4996392;28;20042;-76
2022/03/07 15:35:30;;;;;;;4.95;3.45;;;7.90;63.20;;;;;;5013932;28;20460;-77
2022/03/07 15:37:55;;;;;;;3.97;3.22;;;7.90;63.40;;;;;;4995665;28;20014;-77
2022/03/07 15:40:23;;;;;;;8.07;3.67;;;7.80;62.80;;;;;;5013520;28;20037;-76
2022/03/07 15:42:49;;;;;;;5.28;3.17;;;7.60;63.10;;;;;;4996545;28;20034;-77
2022/03/07 15:45:15;;;;;;;6.68;3.40;;;7.50;63.90;;;;;;5015242;28;20025;-78
2022/03/07 15:47:40;;;;;;;6.72;3.50;;;7.50;64.10;;;;;;5015080;28;20385;-78
2022/03/07 15:50:07;;;;;;;6.03;3.85;;;7.50;63.40;;;;;;5033029;28;20030;-77
2022/03/07 15:52:36;;;;;;;4.53;3.28;;;7.50;63.70;;;;;;5033027;28;20041;-77
2022/03/07 15:55:04;;;;;;;5.40;3.08;;;7.40;64.00;;;;;;5014825;28;20022;-77
2022/03/07 15:57:30;;;;;;;4.93;3.60;;;7.30;64.40;;;;;;5033169;28;20017;-77
2022/03/07 15:59:55;;;;;;;5.47;3.50;;;7.30;64.30;;;;;;5033381;28;20082;-77
2022/03/07 16:02:21;;;;;;;6.45;4.05;;;7.20;64.40;;;;;;5033970;28;20026;-76
2022/03/07 16:04:46;;;;;;;5.15;3.55;;;7.10;64.80;;;;;;5034133;28;20025;-77
2022/03/07 16:07:13;;;;;;;5.43;3.22;;;7.10;64.90;;;;;;5016779;28;20029;-76
2022/03/07 16:09:40;;;;;;;6.10;3.67;;;7.00;65.70;;;;;;5034302;28;20022;-77
2022/03/07 16:12:06;;;;;;;6.53;3.55;;;7.00;65.50;;;;;;5034006;28;20476;-78
2022/03/07 16:14:31;;;;;;;7.07;3.70;;;7.00;65.80;;;;;;5016067;28;20408;-77
2022/03/07 16:16:57;;;;;;;6.95;3.67;;;6.90;65.70;;;;;;5033829;28;20028;-75
2022/03/07 16:19:24;;;;;;;5.95;3.67;;;6.90;65.70;;;;;;5033066;28;20033;-76
2022/03/07 16:21:49;;;;;;;6.63;3.70;;;6.90;66.20;;;;;;5015391;28;20551;-76
2022/03/07 16:24:16;;;;;;;7.47;4.20;;;6.80;66.30;;;;;;5015906;28;20051;-75
2022/03/07 16:26:42;;;;;;;6.47;3.70;;;6.80;66.10;;;;;;5033419;28;20032;-76
2022/03/07 16:29:09;;;;;;;7.22;3.97;;;6.80;66.20;;;;;;5015854;28;20067;-77
2022/03/07 16:31:35;;;;;;;8.75;3.60;;;6.70;65.90;;;;;;5031720;28;20109;-76
2022/03/07 16:34:01;;;;;;;5.70;3.75;;;6.70;66.10;;;;;;5031893;28;20071;-77
2022/03/07 16:36:27;;;;;;;4.95;3.22;;;6.60;66.10;;;;;;5032616;28;20032;-77
2022/03/07 16:38:54;;;;;;;6.68;3.55;;;6.60;66.30;;;;;;5014668;28;20021;-76
2022/03/07 16:41:24;;;;;;;5.55;3.28;;;6.50;67.00;;;;;;5059052;22;20041;-83
2022/03/07 16:43:50;;;;;;;5.70;3.20;;;6.50;67.30;;;;;;5039518;28;20099;-83
2022/03/07 16:46:16;;;;;;;9.18;3.50;;;6.40;67.50;;;;;;5039285;28;20030;-83
2022/03/07 16:48:41;;;;;;;5.10;3.45;;;6.40;67.30;;;;;;5022106;28;20032;-84
2022/03/07 16:51:07;;;;;;;5.78;3.30;;;6.30;67.10;;;;;;5038757;28;20025;-86
2022/03/07 16:53:33;;;;;;;5.40;3.47;;;6.40;66.90;;;;;;5038201;28;20115;-82
2022/03/07 16:55:58;;;;;;;4.93;3.28;;;6.30;67.20;;;;;;5041655;28;20025;-86
2022/03/07 16:58:24;;;;;;;6.95;4.15;;;6.20;67.30;;;;;;5042026;28;20033;-86
2022/03/07 17:00:50;;;;;;;6.45;3.15;;;6.10;67.90;;;;;;5025860;28;20053;-82
2022/03/07 17:03:15;;;;;;;7.43;3.90;;;6.10;68.10;;;;;;5038384;28;20033;-83
2022/03/07 17:05:41;;;;;;;6.53;3.47;;;6.00;68.20;;;;;;5038640;28;20036;-84
2022/03/07 17:08:07;;;;;;;6.28;3.50;;;6.00;68.00;;;;;;5039382;28;20021;-83
2022/03/07 17:10:33;;;;;;;5.00;3.42;;;5.90;68.60;;;;;;5045244;28;20033;-82
2022/03/07 17:12:59;;;;;;;8.82;3.50;;;5.90;68.60;;;;;;5043628;28;20033;-86
2022/03/07 17:15:25;;;;;;;7.40;3.85;;;5.90;68.70;;;;;;5046078;28;20026;-83
2022/03/07 17:17:50;;;;;;;6.38;3.00;;;5.80;69.10;;;;;;5043514;28;20052;-83
2022/03/07 17:20:17;;;;;;;6.18;3.65;;;5.80;69.50;;;;;;5040965;28;20026;-85
2022/03/07 17:22:43;;;;;;;6.85;3.67;;;5.80;69.20;;;;;;5038950;28;20053;-82
2022/03/07 17:25:10;;;;;;;4.07;3.47;;;5.80;70.30;;;;;;5038954;28;20468;-83
2022/03/07 17:27:37;;;;;;;6.88;3.70;;;5.70;69.50;;;;;;5038828;28;20032;-82
2022/03/07 17:30:06;;;;;;;5.35;3.53;;;5.80;69.80;;;;;;5038733;28;20083;-82
2022/03/07 17:32:31;;;;;;;5.00;3.25;;;5.70;69.90;;;;;;5062608;23;20056;-78
2022/03/07 17:34:57;;;;;;;6.82;3.35;;;5.70;70.00;;;;;;5035215;28;20026;-78
2022/03/07 17:37:23;;;;;;;7.03;3.40;;;5.70;70.10;;;;;;5033780;28;20384;-78
2022/03/07 17:39:48;;;;;;;5.47;3.53;;;5.70;70.40;;;;;;5036509;28;20030;-78
2022/03/07 17:42:15;;;;;;;6.30;3.72;;;5.60;70.70;;;;;;5038144;28;20017;-77
2022/03/07 17:44:42;;;;;;;7.25;3.70;;;5.60;71.00;;;;;;5035355;28;20369;-77
2022/03/07 17:47:07;;;;;;;7.13;3.75;;;5.60;71.20;;;;;;5070898;23;20045;-77
2022/03/07 17:49:33;;;;;;;8.13;3.88;;;5.50;71.40;;;;;;5068259;28;20025;-76
2022/03/07 17:51:59;;;;;;;7.90;3.92;;;5.50;71.60;;;;;;5073541;28;20047;-77
2022/03/07 17:54:25;;;;;;;6.93;3.55;;;5.50;71.70;;;;;;5088453;28;20088;-77
2022/03/07 17:56:50;;;;;;;5.47;4.07;;;5.40;72.30;;;;;;5087638;28;20033;-76